Time;durP1;ratioP1;P1;durP2;ratioP2;P2;SDS_P1;SDS_P2;PMS_P1;PMS_P2;Temp;Humidity;BMP_temperature;BMP_pressure;BME280_temperature;BME280_humidity;BME280_pressure;Samples;Min_cycle;Max_cycle;Signal;HPM_P1;HPM_P2
2022/07/08 00:00:49;;;;;;;;;;;;;;;;;;;;;
2022/07/08 00:03:33;;;;;;;6.38;1.70;;;18.90;92.00;;;;;;5075872;28;20028;-90
2022/07/08 00:08:55;;;;;;;8.30;2.20;;;18.90;92.00;;;;;;5061674;28;20574;-91
2022/07/08 00:11:23;;;;;;;7.22;1.45;;;18.90;92.10;;;;;;5052918;28;20111;-90
2022/07/08 00:14:10;;;;;;;;;;;;;;;;;;;;;
2022/07/08 00:16:43;;;;;;;7.07;1.83;;;18.80;92.20;;;;;;5060162;28;20025;-92
2022/07/08 00:19:15;;;;;;;8.50;1.70;;;18.80;92.10;;;;;;5045107;28;20039;-91
2022/07/08 00:22:02;;;;;;;5.82;1.40;;;18.80;92.10;;;;;;5052086;28;20033;-91
2022/07/08 00:24:49;;;;;;;;;;;;;;;;;;;;;
2022/07/08 00:27:43;;;;;;;6.78;1.50;;;18.80;92.20;;;;;;5044682;28;20059;-90
2022/07/08 00:30:32;;;;;;;7.72;2.00;;;18.80;92.30;;;;;;5041710;28;20453;-91
2022/07/08 00:33:28;;;;;;;7.90;1.48;;;18.70;92.30;;;;;;5031216;28;20135;-92
2022/07/08 00:36:01;;;;;;;7.63;1.70;;;18.70;92.40;;;;;;5041849;28;20055;-91
2022/07/08 00:38:59;;;;;;;6.22;1.45;;;18.70;92.50;;;;;;5059228;28;20100;-91
2022/07/08 00:41:28;;;;;;;5.50;1.63;;;18.70;92.60;;;;;;5053965;28;20466;-91
2022/07/08 00:44:11;;;;;;;7.03;1.48;;;18.60;92.60;;;;;;5069357;28;20111;-93
2022/07/08 00:46:47;;;;;;;;;;;;;;;;;;;;;
2022/07/08 00:49:25;;;;;;;;;;;;;;;;;;;;;
2022/07/08 00:52:12;;;;;;;8.13;1.58;;;18.60;92.60;;;;;;5044527;28;20031;-91
2022/07/08 00:54:48;;;;;;;9.68;2.10;;;18.60;92.60;;;;;;5041091;28;20045;-91
2022/07/08 00:57:30;;;;;;;;;;;;;;;;;;;;;
2022/07/08 01:03:30;;;;;;;9.98;1.92;;;18.50;92.70;;;;;;5047785;28;20033;-92
2022/07/08 01:06:02;;;;;;;15.38;1.60;;;18.50;92.70;;;;;;5025342;28;20139;-92
2022/07/08 01:08:53;;;;;;;8.38;2.40;;;18.50;92.80;;;;;;5046712;28;20084;-91
2022/07/08 01:11:26;;;;;;;6.53;1.73;;;18.40;92.90;;;;;;5063221;28;20036;-90
2022/07/08 01:14:03;;;;;;;7.65;1.73;;;18.40;93.00;;;;;;5112079;28;20031;-91
2022/07/08 01:16:36;;;;;;;8.00;1.55;;;18.40;92.90;;;;;;5111347;28;20036;-91
2022/07/08 01:19:07;;;;;;;9.57;1.88;;;18.40;92.80;;;;;;5111400;28;20013;-91
2022/07/08 01:21:45;;;;;;;8.25;1.58;;;18.40;92.90;;;;;;5077562;28;20025;-91
2022/07/08 01:24:11;;;;;;;6.20;1.52;;;18.40;93.00;;;;;;5062039;28;20028;-91
2022/07/08 01:26:37;;;;;;;7.40;2.05;;;18.30;93.00;;;;;;5112058;28;20032;-90
2022/07/08 01:29:09;;;;;;;10.68;1.80;;;18.30;93.00;;;;;;5110818;28;20476;-92
2022/07/08 01:32:05;;;;;;;11.73;2.00;;;18.30;93.10;;;;;;5057637;28;20021;-90
2022/07/08 01:34:36;;;;;;;5.70;1.55;;;18.30;93.10;;;;;;5075056;28;20468;-92
2022/07/08 01:37:29;;;;;;;8.88;1.67;;;18.30;93.10;;;;;;5076829;28;20508;-91
2022/07/08 01:40:08;;;;;;;;;;;;;;;;;;;;;
2022/07/08 01:42:37;;;;;;;7.88;1.70;;;18.20;93.20;;;;;;5077690;28;20050;-91
2022/07/08 01:45:08;;;;;;;7.55;1.90;;;18.20;93.10;;;;;;5094356;28;20051;-92
2022/07/08 01:47:44;;;;;;;10.27;1.95;;;18.20;93.10;;;;;;5104893;28;20028;-92
2022/07/08 01:53:07;;;;;;;5.63;1.65;;;18.20;93.10;;;;;;5056023;28;20062;-91
2022/07/08 01:55:48;;;;;;;;;;;;;;;;;;;;;
2022/07/08 01:58:27;;;;;;;7.75;1.65;;;18.10;93.20;;;;;;5077198;28;20024;-91
2022/07/08 02:01:13;;;;;;;9.30;1.92;;;18.10;93.30;;;;;;5076814;28;20021;-91
2022/07/08 02:03:49;;;;;;;7.20;1.92;;;18.10;93.50;;;;;;5061334;28;20123;-92
2022/07/08 02:06:17;;;;;;;6.88;1.77;;;18.10;93.30;;;;;;5076341;28;20021;-91
2022/07/08 02:08:53;;;;;;;8.27;1.90;;;18.00;93.30;;;;;;5075794;28;20056;-91
2022/07/08 02:14:15;;;;;;;6.45;1.73;;;18.00;93.50;;;;;;5077388;28;20047;-91
2022/07/08 02:17:05;;;;;;;8.48;1.80;;;18.00;93.60;;;;;;5076222;28;20052;-90
2022/07/08 02:19:34;;;;;;;11.30;2.65;;;18.00;93.70;;;;;;5110889;28;20028;-91
2022/07/08 02:22:11;;;;;;;7.47;2.00;;;17.90;93.80;;;;;;5110396;28;20078;-91
2022/07/08 02:24:37;;;;;;;9.77;2.22;;;17.90;93.70;;;;;;5076503;28;20099;-90
2022/07/08 02:27:16;;;;;;;9.23;1.60;;;17.90;93.70;;;;;;5110114;28;20052;-94
2022/07/08 02:29:42;;;;;;;9.68;2.30;;;17.90;93.80;;;;;;5106039;28;20032;-91
2022/07/08 02:32:10;;;;;;;7.45;2.03;;;17.80;93.70;;;;;;5075989;28;20020;-91
2022/07/08 02:34:49;;;;;;;;;;;;;;;;;;;;;
2022/07/08 02:37:28;;;;;;;;;;;;;;;;;;;;;
2022/07/08 02:39:59;;;;;;;10.40;2.13;;;17.80;93.80;;;;;;5078933;28;20440;-90
2022/07/08 02:42:35;;;;;;;6.15;1.50;;;17.80;93.80;;;;;;5112942;28;20028;-91
2022/07/08 02:45:04;;;;;;;9.82;2.05;;;17.70;93.80;;;;;;5076088;28;20063;-89
2022/07/08 02:47:32;;;;;;;5.82;1.30;;;17.70;93.90;;;;;;5101036;28;20073;-91
2022/07/08 02:50:06;;;;;;;7.68;1.73;;;17.70;94.10;;;;;;5124616;28;20052;-92
2022/07/08 02:55:50;;;;;;;;;;;;;;;;;;;;;
2022/07/08 02:58:22;;;;;;;11.88;2.15;;;17.60;94.20;;;;;;5101418;28;20111;-93
2022/07/08 03:04:12;;;;;;;;;;;;;;;;;;;;;
2022/07/08 03:06:48;;;;;;;9.02;1.83;;;17.40;94.30;;;;;;5076815;28;20029;-91
2022/07/08 03:09:52;;;;;;;12.00;2.25;;;17.40;94.40;;;;;;5036475;28;20137;-92
2022/07/08 03:12:26;;;;;;;10.85;2.20;;;17.40;94.50;;;;;;5093219;28;20036;-92
2022/07/08 03:15:33;;;;;;;8.88;1.92;;;17.30;94.60;;;;;;5076824;28;20017;-92
2022/07/08 03:18:14;;;;;;;10.38;2.10;;;17.30;94.90;;;;;;5064708;28;20032;-92
2022/07/08 03:24:19;;;;;;;11.82;2.47;;;17.30;95.70;;;;;;5047606;28;20055;-92
2022/07/08 03:27:13;;;;;;;6.43;1.80;;;17.20;95.50;;;;;;5075642;28;20028;-91
2022/07/08 03:29:38;;;;;;;9.93;2.33;;;17.20;95.50;;;;;;5076760;28;20024;-91
2022/07/08 03:32:14;;;;;;;7.63;1.88;;;17.20;95.50;;;;;;5074760;28;20088;-91
2022/07/08 03:34:55;;;;;;;7.97;1.67;;;17.10;95.50;;;;;;5076452;28;20052;-92
2022/07/08 03:43:10;;;;;;;10.25;1.73;;;17.00;95.50;;;;;;5104087;28;20124;-91
2022/07/08 03:49:09;;;;;;;9.70;1.95;;;16.90;95.80;;;;;;5029046;28;19949;-93
2022/07/08 03:55:10;;;;;;;9.70;2.58;;;16.90;96.00;;;;;;4956216;29;20146;-92
2022/07/08 04:04:59;;;;;;;;;;;;;;;;;;;;;
2022/07/08 04:17:08;;;;;;;;;;;;;;;;;;;;;
2022/07/08 04:30:02;;;;;;;;;;;16.60;97.50;;;;;;5028011;28;20508;-90
2022/07/08 04:32:53;;;;;;;10.63;2.38;;;16.60;97.80;;;;;;5019212;28;20377;-92
2022/07/08 04:41:46;;;;;;;9.23;2.03;;;16.60;98.10;;;;;;5062092;28;20159;-93
2022/07/08 04:48:02;;;;;;;12.48;2.00;;;16.60;98.30;;;;;;5075652;28;20027;-90
2022/07/08 04:50:33;;;;;;;9.07;2.08;;;16.60;98.40;;;;;;5070924;28;20035;-92
2022/07/08 04:53:28;;;;;;;9.35;2.05;;;16.60;98.50;;;;;;5084928;28;20060;-91
2022/07/08 04:56:17;;;;;;;;;;;;;;;;;;;;;
2022/07/08 04:59:16;;;;;;;;;;;;;;;;;;;;;
2022/07/08 05:01:47;;;;;;;10.05;1.70;;;16.60;98.90;;;;;;5077861;28;20035;-91
2022/07/08 05:04:28;;;;;;;8.88;1.70;;;16.50;99.00;;;;;;5060588;28;20101;-90
2022/07/08 05:06:56;;;;;;;8.43;2.03;;;16.50;99.00;;;;;;5060532;28;20024;-91
2022/07/08 05:09:40;;;;;;;7.85;1.90;;;16.60;99.10;;;;;;5066884;28;20118;-93
2022/07/08 05:12:30;;;;;;;11.68;1.92;;;16.60;99.20;;;;;;5072521;28;20020;-92
2022/07/08 05:15:34;;;;;;;12.80;2.13;;;16.60;99.40;;;;;;5100303;28;20032;-92
2022/07/08 05:21:42;;;;;;;;;;;;;;;;;;;;;
2022/07/08 05:24:11;;;;;;;12.80;2.85;;;16.60;99.70;;;;;;5058260;28;20032;-92
2022/07/08 05:27:22;;;;;;;;;;;;;;;;;;;;;
2022/07/08 05:29:48;;;;;;;7.25;1.80;;;16.60;99.90;;;;;;5058325;28;20116;-81
2022/07/08 05:32:24;;;;;;;10.95;1.90;;;16.60;99.90;;;;;;5058839;28;20456;-93
2022/07/08 05:34:58;;;;;;;8.55;2.03;;;16.60;99.90;;;;;;5060581;28;20119;-90
2022/07/08 05:37:42;;;;;;;;;;;;;;;;;;;;;
2022/07/08 05:40:10;;;;;;;5.88;1.75;;;16.60;99.90;;;;;;5062678;28;20108;-92
2022/07/08 05:42:38;;;;;;;14.00;2.17;;;16.70;99.90;;;;;;5093465;28;20159;-92
2022/07/08 05:45:07;;;;;;;12.82;2.28;;;16.70;99.90;;;;;;5063397;28;20031;-93
2022/07/08 05:47:36;;;;;;;7.65;1.98;;;16.70;99.90;;;;;;5109822;28;20021;-91
2022/07/08 05:50:05;;;;;;;10.10;2.38;;;16.70;99.90;;;;;;5113730;28;20012;-91
2022/07/08 05:52:41;;;;;;;8.52;1.80;;;16.80;99.90;;;;;;5113878;28;20024;-90
2022/07/08 05:55:09;;;;;;;7.30;1.83;;;16.80;99.90;;;;;;5077113;28;20024;-92
2022/07/08 05:57:37;;;;;;;8.13;2.20;;;16.80;99.90;;;;;;5080805;28;20028;-91
2022/07/08 06:00:06;;;;;;;8.93;2.28;;;16.80;99.90;;;;;;5096531;28;20554;-91
2022/07/08 06:02:34;;;;;;;10.55;2.25;;;16.90;99.90;;;;;;5101396;28;20090;-92
2022/07/08 06:05:27;;;;;;;11.38;2.20;;;17.00;99.90;;;;;;5056314;28;20036;-91
2022/07/08 06:07:56;;;;;;;9.80;1.80;;;17.00;99.90;;;;;;5068822;28;20139;-92
2022/07/08 06:10:22;;;;;;;9.38;2.20;;;17.00;99.90;;;;;;5079625;28;20020;-91
2022/07/08 06:12:55;;;;;;;10.45;1.92;;;17.00;99.90;;;;;;5097250;28;20024;-91
2022/07/08 06:15:28;;;;;;;12.18;2.10;;;17.10;99.90;;;;;;5072936;28;20032;-91
2022/07/08 06:17:54;;;;;;;5.63;1.60;;;17.10;99.90;;;;;;5076154;28;20029;-92
2022/07/08 06:20:35;;;;;;;;;;;;;;;;;;;;;
2022/07/08 06:23:16;;;;;;;;;;;;;;;;;;;;;
2022/07/08 06:25:49;;;;;;;9.50;1.60;;;17.30;99.90;;;;;;5073432;28;20527;-90
2022/07/08 06:28:36;;;;;;;;;;;;;;;;;;;;;
2022/07/08 06:31:06;;;;;;;7.53;1.67;;;17.40;99.90;;;;;;5072662;28;20123;-91
2022/07/08 06:33:37;;;;;;;6.57;1.85;;;17.50;99.90;;;;;;5075213;28;20024;-92
2022/07/08 06:36:03;;;;;;;8.57;1.85;;;17.50;99.90;;;;;;5061790;28;20058;-91
2022/07/08 06:38:29;;;;;;;5.82;1.50;;;17.60;99.90;;;;;;5086294;28;20103;-92
2022/07/08 06:40:55;;;;;;;7.32;2.10;;;17.60;99.90;;;;;;5121295;28;20516;-91
2022/07/08 06:43:23;;;;;;;8.30;1.60;;;17.70;99.90;;;;;;5090237;28;20042;-92
2022/07/08 06:45:51;;;;;;;8.95;2.05;;;17.70;99.90;;;;;;5061797;28;20114;-90
2022/07/08 06:48:18;;;;;;;9.02;2.30;;;17.70;99.90;;;;;;5079825;28;20024;-90
2022/07/08 06:50:58;;;;;;;8.15;1.90;;;17.80;99.90;;;;;;5047216;28;20025;-90
2022/07/08 06:56:38;;;;;;;5.55;1.67;;;17.90;99.90;;;;;;5053009;28;20029;-91
2022/07/08 06:59:15;;;;;;;8.25;1.60;;;17.90;99.90;;;;;;5076583;28;20021;-90
2022/07/08 07:01:41;;;;;;;7.50;1.80;;;18.00;99.90;;;;;;5064650;28;20476;-90
2022/07/08 07:04:12;;;;;;;10.23;2.03;;;18.10;99.90;;;;;;5095642;28;20081;-90
2022/07/08 07:06:41;;;;;;;10.02;2.05;;;18.10;99.90;;;;;;5071003;28;20484;-89
2022/07/08 07:09:09;;;;;;;6.05;1.83;;;18.20;99.90;;;;;;5108943;28;20049;-92
2022/07/08 07:11:39;;;;;;;7.47;1.75;;;18.20;99.90;;;;;;5110690;28;20013;-90
2022/07/08 07:14:10;;;;;;;11.35;1.90;;;18.30;99.90;;;;;;5077009;28;20024;-90
2022/07/08 07:16:41;;;;;;;11.05;2.45;;;18.30;99.90;;;;;;5077144;28;20021;-90
2022/07/08 07:19:28;;;;;;;7.97;1.60;;;18.30;99.90;;;;;;5112324;28;20108;-90
2022/07/08 07:21:54;;;;;;;8.93;1.70;;;18.40;99.90;;;;;;5116351;28;20163;-90
2022/07/08 07:24:30;;;;;;;;;;;;;;;;;;;;;
2022/07/08 07:27:12;;;;;;;;;;;;;;;;;;;;;
2022/07/08 07:29:40;;;;;;;9.38;2.15;;;18.50;99.90;;;;;;5091477;28;20135;-93
2022/07/08 07:35:40;;;;;;;15.30;3.03;;;18.70;99.90;;;;;;5060355;28;20064;-91
2022/07/08 07:38:35;;;;;;;;;;;;;;;;;;;;;
2022/07/08 07:41:10;;;;;;;9.13;1.80;;;18.80;99.90;;;;;;5064552;28;20439;-91
2022/07/08 07:43:44;;;;;;;9.05;2.17;;;18.80;99.90;;;;;;5073334;28;20059;-93
2022/07/08 07:46:45;;;;;;;;;;;;;;;;;;;;;
2022/07/08 07:49:18;;;;;;;;;;;18.90;99.90;;;;;;5067065;28;20116;-92
2022/07/08 07:51:44;;;;;;;7.45;1.80;;;19.00;99.90;;;;;;5066822;28;20340;-94
2022/07/08 07:54:18;;;;;;;8.63;1.90;;;19.00;99.90;;;;;;5108465;28;20070;-92
2022/07/08 07:56:55;;;;;;;6.43;1.63;;;19.10;99.90;;;;;;5059239;28;20033;-91
2022/07/08 07:59:29;;;;;;;8.00;1.90;;;19.20;99.90;;;;;;5063273;28;20052;-91
2022/07/08 08:02:00;;;;;;;9.65;2.15;;;19.20;99.90;;;;;;5074928;28;20384;-92
2022/07/08 08:07:15;;;;;;;6.90;1.90;;;19.30;99.90;;;;;;5064176;28;20033;-94
2022/07/08 08:09:46;;;;;;;7.15;2.15;;;19.40;99.90;;;;;;5057614;28;20044;-93
2022/07/08 08:12:22;;;;;;;9.80;2.55;;;19.40;99.80;;;;;;5073532;28;20043;-91
2022/07/08 08:15:08;;;;;;;;;;;;;;;;;;;;;
2022/07/08 08:17:43;;;;;;;8.93;2.28;;;19.40;99.10;;;;;;5073113;28;20028;-90
2022/07/08 08:20:16;;;;;;;7.30;1.70;;;19.50;99.00;;;;;;5057430;28;20052;-90
2022/07/08 08:22:46;;;;;;;6.55;2.00;;;19.60;99.00;;;;;;5070932;28;20017;-89
2022/07/08 08:25:22;;;;;;;;;;;;;;;;;;;;;
2022/07/08 08:28:06;;;;;;;5.07;1.40;;;19.60;99.00;;;;;;5085559;28;20107;-91
2022/07/08 08:30:34;;;;;;;6.90;1.70;;;19.70;99.20;;;;;;5081688;28;20023;-88
2022/07/08 08:33:00;;;;;;;8.55;1.67;;;19.80;99.20;;;;;;5080984;28;20046;-90
2022/07/08 08:35:25;;;;;;;6.35;1.63;;;19.80;99.10;;;;;;5070863;28;20508;-79
2022/07/08 08:37:52;;;;;;;8.40;1.65;;;19.90;99.10;;;;;;5084038;28;20116;-80
2022/07/08 08:40:20;;;;;;;7.32;1.40;;;20.00;99.10;;;;;;5108407;28;20017;-76
2022/07/08 08:42:46;;;;;;;10.35;1.77;;;20.10;99.00;;;;;;5092547;28;20028;-77
2022/07/08 08:45:11;;;;;;;8.65;1.80;;;20.10;98.70;;;;;;5073399;28;20024;-77
2022/07/08 08:47:38;;;;;;;7.60;1.83;;;20.10;98.30;;;;;;5090841;28;20017;-77
2022/07/08 08:52:57;;;;;;;7.82;1.70;;;20.20;97.90;;;;;;5068921;28;20058;-78
2022/07/08 08:55:28;;;;;;;4.50;1.63;;;20.20;98.00;;;;;;5069965;28;20063;-78
2022/07/08 08:57:57;;;;;;;7.60;1.80;;;20.30;98.20;;;;;;5058121;28;20110;-77
2022/07/08 09:00:24;;;;;;;6.90;1.80;;;20.40;98.30;;;;;;5054361;28;20070;-77
2022/07/08 09:02:50;;;;;;;7.10;2.10;;;20.40;98.20;;;;;;5052488;28;20029;-77
2022/07/08 09:05:16;;;;;;;8.07;1.50;;;20.50;98.30;;;;;;5057612;28;20465;-78
2022/07/08 09:07:43;;;;;;;6.55;1.67;;;20.50;98.10;;;;;;5075270;28;20045;-77
2022/07/08 09:10:09;;;;;;;7.38;2.03;;;20.60;97.90;;;;;;5090988;28;20036;-77
2022/07/08 09:12:35;;;;;;;6.63;1.48;;;20.60;97.60;;;;;;5057676;28;20388;-78
2022/07/08 09:15:01;;;;;;;8.43;2.10;;;20.70;97.30;;;;;;5068435;28;20082;-77
2022/07/08 09:17:27;;;;;;;10.40;1.92;;;20.70;97.10;;;;;;5071914;28;20012;-78
2022/07/08 09:19:53;;;;;;;6.90;1.80;;;20.70;97.00;;;;;;5057835;28;20035;-78
2022/07/08 09:22:23;;;;;;;9.13;2.70;;;20.80;97.10;;;;;;5040556;28;20055;-77
2022/07/08 09:24:49;;;;;;;5.40;1.50;;;20.90;97.30;;;;;;5075552;28;20059;-77
2022/07/08 09:27:16;;;;;;;5.75;1.83;;;20.90;97.20;;;;;;5057509;28;20460;-78
2022/07/08 09:29:59;;;;;;;8.43;2.47;;;20.90;97.10;;;;;;5074917;28;20020;-78
2022/07/08 09:32:25;;;;;;;8.70;2.10;;;21.00;97.00;;;;;;5069036;28;20029;-77
2022/07/08 09:34:51;;;;;;;5.57;1.58;;;21.00;96.90;;;;;;5075292;28;20472;-78
2022/07/08 09:37:19;;;;;;;8.25;2.00;;;21.10;97.00;;;;;;5057187;28;20148;-78
2022/07/08 09:39:45;;;;;;;11.75;3.45;;;21.10;96.90;;;;;;5056839;28;20491;-78
2022/07/08 09:42:16;;;;;;;7.82;1.95;;;21.20;96.90;;;;;;5057306;28;20035;-77
2022/07/08 09:44:42;;;;;;;6.68;1.98;;;21.30;96.90;;;;;;5040922;28;20052;-78
2022/07/08 09:47:13;;;;;;;5.82;1.60;;;21.30;96.90;;;;;;5074806;28;20460;-78
2022/07/08 09:49:43;;;;;;;7.38;2.33;;;21.40;96.40;;;;;;5056998;28;20115;-77
2022/07/08 09:52:10;;;;;;;5.80;1.65;;;21.40;96.20;;;;;;5056971;28;20059;-77
2022/07/08 09:54:36;;;;;;;10.30;1.75;;;21.40;96.10;;;;;;5039925;28;20055;-78
2022/07/08 09:57:07;;;;;;;8.85;2.05;;;21.50;96.20;;;;;;5040276;28;20384;-78
2022/07/08 09:59:35;;;;;;;6.85;1.98;;;21.50;96.20;;;;;;5058791;28;20039;-77
2022/07/08 10:02:00;;;;;;;8.77;1.92;;;21.50;96.20;;;;;;5052771;28;20063;-78
2022/07/08 10:04:27;;;;;;;10.07;2.63;;;21.50;96.10;;;;;;5041902;28;20036;-77
2022/07/08 10:06:55;;;;;;;7.75;2.25;;;21.60;95.90;;;;;;5041941;28;20025;-77
2022/07/08 10:09:23;;;;;;;8.38;1.95;;;21.60;95.70;;;;;;5076080;28;20476;-78
2022/07/08 10:11:49;;;;;;;9.40;1.92;;;21.70;95.70;;;;;;5057301;28;20063;-77
2022/07/08 10:14:16;;;;;;;7.50;2.10;;;21.70;95.70;;;;;;5074924;28;20029;-77
2022/07/08 10:16:45;;;;;;;6.00;1.85;;;21.80;95.70;;;;;;5073769;28;20037;-78
2022/07/08 10:19:16;;;;;;;7.70;1.85;;;21.90;95.60;;;;;;5068960;28;20028;-78
2022/07/08 10:21:46;;;;;;;10.68;2.10;;;21.90;95.40;;;;;;5076001;28;20020;-77
2022/07/08 10:24:17;;;;;;;9.73;1.67;;;22.00;95.00;;;;;;5057004;28;20055;-78
2022/07/08 10:26:44;;;;;;;4.00;1.55;;;22.10;95.00;;;;;;5074990;28;20464;-77
2022/07/08 10:29:11;;;;;;;7.18;2.08;;;22.10;95.30;;;;;;5063363;28;20465;-78
2022/07/08 10:31:57;;;;;;;5.68;2.10;;;22.20;95.40;;;;;;5062265;28;20063;-77
2022/07/08 10:34:30;;;;;;;12.15;2.35;;;22.30;95.50;;;;;;5042094;28;20048;-77
2022/07/08 10:36:56;;;;;;;7.45;1.83;;;22.40;95.60;;;;;;5058837;28;20031;-78
2022/07/08 10:39:30;;;;;;;7.65;2.25;;;22.50;95.20;;;;;;5074567;28;20021;-79
2022/07/08 10:42:04;;;;;;;10.10;1.98;;;22.50;94.70;;;;;;5074452;28;20021;-79
2022/07/08 10:44:45;;;;;;;6.05;2.08;;;22.50;94.50;;;;;;5056568;28;20021;-78
2022/07/08 10:47:32;;;;;;;10.20;2.30;;;22.60;94.50;;;;;;5055949;28;20024;-77
2022/07/08 10:50:08;;;;;;;8.38;2.08;;;22.60;94.60;;;;;;5063243;28;20069;-78
2022/07/08 10:52:41;;;;;;;7.07;2.38;;;22.70;94.60;;;;;;5073436;28;20077;-78
2022/07/08 10:55:15;;;;;;;8.18;2.22;;;22.70;94.50;;;;;;5040007;28;20060;-79
2022/07/08 10:57:55;;;;;;;5.95;1.90;;;22.80;94.30;;;;;;5057175;28;20107;-81
2022/07/08 11:00:22;;;;;;;6.35;1.85;;;22.90;94.20;;;;;;5075276;28;20548;-79
2022/07/08 11:02:49;;;;;;;8.57;2.10;;;22.90;94.20;;;;;;5041744;28;20511;-82
2022/07/08 11:05:42;;;;;;;6.75;1.67;;;23.00;94.20;;;;;;5058883;28;20021;-83
2022/07/08 11:08:20;;;;;;;5.93;2.00;;;23.10;94.40;;;;;;5056513;28;20101;-83
2022/07/08 11:10:46;;;;;;;3.85;1.52;;;23.10;94.60;;;;;;5073714;28;20465;-82
2022/07/08 11:13:12;;;;;;;7.57;2.00;;;23.20;94.50;;;;;;5038891;28;20032;-81
2022/07/08 11:15:38;;;;;;;10.00;2.55;;;23.20;94.20;;;;;;5058153;28;20488;-80
2022/07/08 11:18:04;;;;;;;8.55;1.70;;;23.20;94.00;;;;;;5072405;28;20389;-79
2022/07/08 11:20:31;;;;;;;9.60;1.85;;;23.30;93.70;;;;;;5055418;28;20020;-84
2022/07/08 11:22:57;;;;;;;6.60;1.70;;;23.30;93.40;;;;;;5055475;28;20464;-79
2022/07/08 11:25:23;;;;;;;7.07;2.03;;;23.40;93.50;;;;;;5055454;28;20078;-82
2022/07/08 11:27:50;;;;;;;7.05;1.70;;;23.50;93.70;;;;;;5053667;28;20048;-83
2022/07/08 11:30:16;;;;;;;6.53;2.00;;;23.60;93.80;;;;;;5081050;28;20484;-83
2022/07/08 11:32:48;;;;;;;6.75;1.70;;;23.60;93.60;;;;;;5072957;28;20024;-83
2022/07/08 11:35:13;;;;;;;7.50;2.40;;;23.70;93.40;;;;;;5055845;28;20082;-85
2022/07/08 11:37:40;;;;;;;6.85;2.05;;;23.70;93.50;;;;;;5055136;28;20449;-81
2022/07/08 11:40:07;;;;;;;5.18;1.50;;;23.80;93.50;;;;;;5055513;28;20024;-82
2022/07/08 11:42:36;;;;;;;7.03;2.00;;;23.80;93.50;;;;;;5038025;28;20054;-81
2022/07/08 11:45:07;;;;;;;3.90;1.50;;;23.80;93.40;;;;;;5073473;28;20029;-81
2022/07/08 11:47:33;;;;;;;5.57;1.70;;;23.90;93.30;;;;;;5071752;28;21007;-85
2022/07/08 11:49:59;;;;;;;6.05;1.83;;;23.90;93.20;;;;;;5064581;28;20123;-80
2022/07/08 11:52:27;;;;;;;6.35;1.75;;;24.00;93.40;;;;;;5090820;28;20120;-84
2022/07/08 11:54:53;;;;;;;9.82;2.45;;;24.00;93.30;;;;;;5062674;28;20028;-82
2022/07/08 11:57:22;;;;;;;8.27;2.13;;;24.00;93.00;;;;;;5107619;28;20031;-82
2022/07/08 11:59:49;;;;;;;7.38;1.70;;;24.10;92.70;;;;;;5067169;28;20032;-80
2022/07/08 12:02:20;;;;;;;6.47;1.75;;;24.10;92.70;;;;;;5111951;28;20605;-80
2022/07/08 12:04:48;;;;;;;7.28;2.40;;;24.10;92.30;;;;;;5092754;28;20380;-82
2022/07/08 12:07:25;;;;;;;6.32;2.13;;;24.20;92.30;;;;;;5058752;28;20118;-85
2022/07/08 12:10:03;;;;;;;5.85;1.83;;;24.20;92.20;;;;;;5060958;28;20041;-82
2022/07/08 12:12:32;;;;;;;4.38;1.90;;;24.30;92.10;;;;;;5079506;28;20028;-83
2022/07/08 12:15:14;;;;;;;7.90;2.22;;;24.30;91.70;;;;;;5060990;28;20206;-82
2022/07/08 12:17:39;;;;;;;6.18;1.88;;;24.40;91.80;;;;;;5055174;28;20043;-82
2022/07/08 12:20:06;;;;;;;9.90;2.40;;;24.40;91.90;;;;;;5078181;28;20024;-83
2022/07/08 12:22:44;;;;;;;5.22;1.75;;;24.50;92.20;;;;;;5058848;28;20460;-83
2022/07/08 12:25:09;;;;;;;5.97;1.90;;;24.60;92.20;;;;;;5058707;28;20040;-81
2022/07/08 12:27:35;;;;;;;5.25;1.90;;;24.60;92.20;;;;;;5037712;28;20029;-83
2022/07/08 12:30:06;;;;;;;6.93;2.10;;;24.70;91.90;;;;;;5059053;28;20039;-81
2022/07/08 12:32:41;;;;;;;;;;;24.70;91.70;;;;;;5069273;28;20021;-78
2022/07/08 12:35:12;;;;;;;7.80;2.08;;;24.80;91.70;;;;;;5072710;28;19978;-78
2022/07/08 12:37:38;;;;;;;;;;;24.90;91.60;;;;;;5073408;28;20024;-80
2022/07/08 12:40:18;;;;;;;7.90;2.17;;;24.90;90.80;;;;;;5059695;28;19905;-79
2022/07/08 12:42:59;;;;;;;6.67;1.90;;;24.90;91.20;;;;;;5059393;28;20380;-78
2022/07/08 12:45:27;;;;;;;6.53;1.85;;;25.00;91.30;;;;;;5059811;28;20279;-79
2022/07/08 12:47:52;;;;;;;4.88;1.60;;;25.00;91.30;;;;;;5058397;28;20465;-79
2022/07/08 12:50:21;;;;;;;7.50;1.90;;;25.10;91.60;;;;;;5041181;28;20082;-79
2022/07/08 12:52:47;;;;;;;4.25;1.83;;;25.10;91.50;;;;;;5043875;28;20025;-78
2022/07/08 12:55:13;;;;;;;7.45;2.30;;;25.20;91.30;;;;;;5060645;28;20043;-78
2022/07/08 12:57:39;;;;;;;6.05;1.88;;;25.20;90.80;;;;;;5043943;28;20078;-79
2022/07/08 13:00:05;;;;;;;6.50;1.80;;;25.20;90.10;;;;;;5091769;28;20024;-79
2022/07/08 13:02:31;;;;;;;6.90;2.58;;;25.20;89.70;;;;;;5077846;28;20544;-79
2022/07/08 13:04:57;;;;;;;5.63;1.80;;;25.20;89.00;;;;;;5093024;28;20032;-78
2022/07/08 13:07:23;;;;;;;5.25;2.00;;;25.20;89.20;;;;;;5077311;28;20024;-79
2022/07/08 13:09:50;;;;;;;5.47;1.80;;;25.20;89.90;;;;;;5077034;28;20057;-79
2022/07/08 13:12:15;;;;;;;3.70;1.70;;;25.20;90.10;;;;;;5092351;28;20082;-82
2022/07/08 13:14:41;;;;;;;4.65;1.50;;;25.20;90.10;;;;;;5113406;28;20059;-81
2022/07/08 13:17:07;;;;;;;5.93;1.67;;;25.20;90.10;;;;;;5076514;28;20111;-81
2022/07/08 13:19:33;;;;;;;7.13;1.90;;;25.20;89.90;;;;;;5107628;28;20476;-80
2022/07/08 13:22:00;;;;;;;8.63;2.33;;;25.20;89.50;;;;;;5091044;28;20028;-81
2022/07/08 13:24:26;;;;;;;4.78;1.63;;;25.20;89.50;;;;;;5075997;28;20111;-80
2022/07/08 13:26:52;;;;;;;5.47;1.70;;;25.30;89.70;;;;;;5074827;28;20028;-86
2022/07/08 13:29:18;;;;;;;6.28;1.75;;;25.30;90.00;;;;;;5058538;28;20055;-82
2022/07/08 13:31:44;;;;;;;8.50;1.92;;;25.30;89.30;;;;;;5075161;28;20055;-83
2022/07/08 13:34:10;;;;;;;4.63;1.60;;;25.30;88.70;;;;;;5092009;28;20087;-83
2022/07/08 13:36:35;;;;;;;7.28;2.00;;;25.30;88.40;;;;;;5075485;28;20490;-83
2022/07/08 13:39:01;;;;;;;5.78;1.65;;;25.30;88.10;;;;;;5075420;28;20028;-81
2022/07/08 13:41:30;;;;;;;6.43;1.52;;;25.30;87.60;;;;;;5074967;28;20039;-83
2022/07/08 13:43:57;;;;;;;5.45;1.80;;;25.30;87.70;;;;;;5074176;28;20108;-83
2022/07/08 13:46:23;;;;;;;4.68;1.70;;;25.30;87.40;;;;;;5074094;28;20055;-86
2022/07/08 13:48:48;;;;;;;3.85;1.88;;;25.30;86.80;;;;;;5057448;28;20093;-84
2022/07/08 13:51:14;;;;;;;5.82;1.60;;;25.30;86.80;;;;;;5090732;28;20094;-84
2022/07/08 13:53:39;;;;;;;6.00;1.40;;;25.30;87.20;;;;;;5090327;28;20102;-82
2022/07/08 13:56:05;;;;;;;5.28;1.60;;;25.30;86.90;;;;;;5073718;28;20054;-81
2022/07/08 13:58:31;;;;;;;3.90;1.45;;;25.30;86.60;;;;;;5042788;28;20028;-82
2022/07/08 14:00:57;;;;;;;4.72;1.40;;;25.40;86.40;;;;;;5073399;28;20027;-81
2022/07/08 14:03:23;;;;;;;3.05;1.27;;;25.40;86.80;;;;;;5073310;28;20032;-81
2022/07/08 14:05:48;;;;;;;4.28;1.60;;;25.50;87.30;;;;;;5056549;28;20029;-80
2022/07/08 14:08:15;;;;;;;3.80;1.33;;;25.50;87.10;;;;;;5089938;28;20053;-82
2022/07/08 14:10:40;;;;;;;5.30;1.45;;;25.50;87.20;;;;;;5072831;28;20021;-82
2022/07/08 14:13:06;;;;;;;3.92;1.30;;;25.60;87.30;;;;;;5090281;28;20041;-82
2022/07/08 14:15:32;;;;;;;5.15;1.63;;;25.70;87.30;;;;;;5073241;28;20032;-84
2022/07/08 14:17:57;;;;;;;4.28;1.65;;;25.80;86.70;;;;;;5090192;28;20028;-83
2022/07/08 14:20:23;;;;;;;5.55;1.38;;;25.90;86.00;;;;;;5090231;28;20021;-83
2022/07/08 14:22:49;;;;;;;4.22;1.30;;;25.90;85.60;;;;;;5075703;28;20025;-81
2022/07/08 14:25:17;;;;;;;4.00;1.92;;;26.00;85.50;;;;;;5097065;28;20048;-87
2022/07/08 14:27:42;;;;;;;6.90;1.60;;;26.10;84.40;;;;;;5077608;28;20025;-88
2022/07/08 14:30:08;;;;;;;3.28;1.00;;;26.10;84.00;;;;;;5077462;28;20095;-85
2022/07/08 14:32:34;;;;;;;3.33;1.30;;;26.10;83.80;;;;;;5078106;28;20059;-85
2022/07/08 14:35:00;;;;;;;4.53;1.50;;;26.20;84.00;;;;;;5093650;28;20060;-85
2022/07/08 14:37:25;;;;;;;5.03;1.33;;;26.20;83.70;;;;;;5077196;28;20028;-84
2022/07/08 14:39:51;;;;;;;2.55;1.40;;;26.30;82.30;;;;;;5058651;28;20028;-88
2022/07/08 14:42:17;;;;;;;36.88;2.47;;;26.30;82.00;;;;;;5109735;28;20023;-87
2022/07/08 14:44:42;;;;;;;4.45;1.13;;;26.40;82.30;;;;;;5073259;28;20024;-86
2022/07/08 14:47:09;;;;;;;5.53;1.50;;;26.40;81.50;;;;;;5090189;28;20472;-88
2022/07/08 14:49:36;;;;;;;3.70;1.35;;;26.50;81.30;;;;;;5056748;28;20045;-85
2022/07/08 14:52:03;;;;;;;3.20;1.40;;;26.50;81.10;;;;;;5074901;28;20024;-86
2022/07/08 14:54:31;;;;;;;4.55;1.45;;;26.60;81.10;;;;;;5057247;28;20048;-86
2022/07/08 14:56:56;;;;;;;4.28;1.52;;;26.60;81.30;;;;;;5090805;28;20480;-84
2022/07/08 14:59:22;;;;;;;5.05;1.48;;;26.70;80.60;;;;;;5074327;28;20035;-88
2022/07/08 15:01:48;;;;;;;6.28;1.98;;;26.70;79.90;;;;;;5059024;28;20059;-88
2022/07/08 15:04:14;;;;;;;5.40;1.50;;;26.80;79.90;;;;;;5075690;28;20121;-87
2022/07/08 15:06:40;;;;;;;4.38;1.60;;;26.80;79.70;;;;;;5091443;28;20036;-86
2022/07/08 15:09:06;;;;;;;5.07;1.70;;;26.90;79.80;;;;;;5074053;28;20056;-84
2022/07/08 15:11:31;;;;;;;4.15;1.40;;;26.90;79.70;;;;;;5055563;28;20077;-86